Terminal Aerodrome Forecast
Issued by NWS

Home | Current Version | Previous Version | Text Only | Print | Product List | Glossary Off
Versions: 1 2 3 4 5 6 7 8 9 10 11 12 13 14 15

000
FTUS43 KBIS 130500
TAFDIK
TAF
KDIK 130520Z 1306/1406 21009KT P6SM BKN150
     FM131600 30014G20KT P6SM BKN050
     FM140100 31008KT P6SM BKN050=

USA.gov is the U.S. government's official web portal to all federal, state and local government web resources and services.